sensor_id;sensor_type;location;lat;lon;timestamp;temperature;humidity
54938;DHT22;52756;52.826;6.214;2023-02-14T00:01:10;4.00;77.60
54938;DHT22;52756;52.826;6.214;2023-02-14T00:03:36;4.00;77.70
54938;DHT22;52756;52.826;6.214;2023-02-14T00:06:11;4.30;77.90
54938;DHT22;52756;52.826;6.214;2023-02-14T00:08:37;4.00;77.90
54938;DHT22;52756;52.826;6.214;2023-02-14T00:11:05;4.00;77.90
54938;DHT22;52756;52.826;6.214;2023-02-14T00:13:33;3.90;77.80
54938;DHT22;52756;52.826;6.214;2023-02-14T00:15:58;4.00;77.70
54938;DHT22;52756;52.826;6.214;2023-02-14T00:18:24;3.90;77.20
54938;DHT22;52756;52.826;6.214;2023-02-14T00:21:13;3.90;77.00
54938;DHT22;52756;52.826;6.214;2023-02-14T00:23:38;3.80;76.80
54938;DHT22;52756;52.826;6.214;2023-02-14T00:26:04;4.10;76.90
54938;DHT22;52756;52.826;6.214;2023-02-14T00:28:30;4.10;76.90
54938;DHT22;52756;52.826;6.214;2023-02-14T00:30:56;3.80;76.90
54938;DHT22;52756;52.826;6.214;2023-02-14T00:33:22;3.80;77.00
54938;DHT22;52756;52.826;6.214;2023-02-14T00:35:47;3.70;77.00
54938;DHT22;52756;52.826;6.214;2023-02-14T00:38:13;3.70;77.10
54938;DHT22;52756;52.826;6.214;2023-02-14T00:40:39;3.70;77.20
54938;DHT22;52756;52.826;6.214;2023-02-14T00:43:04;3.70;77.40
54938;DHT22;52756;52.826;6.214;2023-02-14T00:45:30;3.70;77.50
54938;DHT22;52756;52.826;6.214;2023-02-14T00:47:56;3.70;77.70
54938;DHT22;52756;52.826;6.214;2023-02-14T00:50:21;3.70;77.90
54938;DHT22;52756;52.826;6.214;2023-02-14T00:52:47;3.70;77.90
54938;DHT22;52756;52.826;6.214;2023-02-14T00:55:12;3.70;77.90
54938;DHT22;52756;52.826;6.214;2023-02-14T00:57:38;3.70;77.90
54938;DHT22;52756;52.826;6.214;2023-02-14T01:00:05;3.60;77.90
54938;DHT22;52756;52.826;6.214;2023-02-14T01:02:30;3.60;78.10
54938;DHT22;52756;52.826;6.214;2023-02-14T01:04:56;3.60;78.20
54938;DHT22;52756;52.826;6.214;2023-02-14T01:07:22;3.60;78.80
54938;DHT22;52756;52.826;6.214;2023-02-14T01:09:47;3.50;78.50
54938;DHT22;52756;52.826;6.214;2023-02-14T01:12:13;3.60;78.70
54938;DHT22;52756;52.826;6.214;2023-02-14T01:14:39;3.60;79.00
54938;DHT22;52756;52.826;6.214;2023-02-14T01:17:04;3.50;79.10
54938;DHT22;52756;52.826;6.214;2023-02-14T01:19:30;3.50;79.30
54938;DHT22;52756;52.826;6.214;2023-02-14T01:21:56;3.50;79.50
54938;DHT22;52756;52.826;6.214;2023-02-14T01:24:21;3.50;79.60
54938;DHT22;52756;52.826;6.214;2023-02-14T01:26:47;3.40;79.60
54938;DHT22;52756;52.826;6.214;2023-02-14T01:29:13;3.40;79.90
54938;DHT22;52756;52.826;6.214;2023-02-14T01:31:38;3.40;80.00
54938;DHT22;52756;52.826;6.214;2023-02-14T01:34:04;3.40;80.20
54938;DHT22;52756;52.826;6.214;2023-02-14T01:36:39;3.40;80.30
54938;DHT22;52756;52.826;6.214;2023-02-14T01:39:13;3.40;80.50
54938;DHT22;52756;52.826;6.214;2023-02-14T01:41:41;3.40;80.60
54938;DHT22;52756;52.826;6.214;2023-02-14T01:46:54;3.50;80.80
54938;DHT22;52756;52.826;6.214;2023-02-14T01:49:21;3.70;81.00
54938;DHT22;52756;52.826;6.214;2023-02-14T01:52:00;3.70;81.00
54938;DHT22;52756;52.826;6.214;2023-02-14T01:54:27;3.50;81.00
54938;DHT22;52756;52.826;6.214;2023-02-14T01:56:56;3.50;81.00
54938;DHT22;52756;52.826;6.214;2023-02-14T01:59:26;3.50;81.00
54938;DHT22;52756;52.826;6.214;2023-02-14T02:01:53;3.60;81.00
54938;DHT22;52756;52.826;6.214;2023-02-14T02:04:24;3.60;80.90
54938;DHT22;52756;52.826;6.214;2023-02-14T02:06:58;4.00;81.10
54938;DHT22;52756;52.826;6.214;2023-02-14T02:09:47;3.50;80.60
54938;DHT22;52756;52.826;6.214;2023-02-14T02:12:13;3.50;80.30
54938;DHT22;52756;52.826;6.214;2023-02-14T02:14:39;3.50;80.10
54938;DHT22;52756;52.826;6.214;2023-02-14T02:34:42;3.40;79.70
54938;DHT22;52756;52.826;6.214;2023-02-14T02:42:32;3.60;80.00
54938;DHT22;52756;52.826;6.214;2023-02-14T02:48:04;3.40;80.00
54938;DHT22;52756;52.826;6.214;2023-02-14T02:50:38;3.50;80.20
54938;DHT22;52756;52.826;6.214;2023-02-14T02:53:46;3.30;80.10
54938;DHT22;52756;52.826;6.214;2023-02-14T02:56:22;3.30;80.10
54938;DHT22;52756;52.826;6.214;2023-02-14T02:59:12;3.30;80.20
54938;DHT22;52756;52.826;6.214;2023-02-14T03:02:05;3.30;80.20
54938;DHT22;52756;52.826;6.214;2023-02-14T03:04:34;3.30;80.20
54938;DHT22;52756;52.826;6.214;2023-02-14T03:07:36;3.40;80.30
54938;DHT22;52756;52.826;6.214;2023-02-14T03:10:12;3.40;80.30
54938;DHT22;52756;52.826;6.214;2023-02-14T03:30:17;3.30;80.00
54938;DHT22;52756;52.826;6.214;2023-02-14T03:35:31;3.30;80.00
54938;DHT22;52756;52.826;6.214;2023-02-14T03:38:14;3.60;80.10
54938;DHT22;52756;52.826;6.214;2023-02-14T03:40:50;3.30;79.70
54938;DHT22;52756;52.826;6.214;2023-02-14T03:46:10;3.30;79.40
54938;DHT22;52756;52.826;6.214;2023-02-14T03:48:39;3.20;79.10
54938;DHT22;52756;52.826;6.214;2023-02-14T03:51:09;3.20;78.90
54938;DHT22;52756;52.826;6.214;2023-02-14T03:53:41;3.10;78.80
54938;DHT22;52756;52.826;6.214;2023-02-14T03:58:40;3.10;79.30
54938;DHT22;52756;52.826;6.214;2023-02-14T04:01:24;3.00;79.60
54938;DHT22;52756;52.826;6.214;2023-02-14T04:03:51;3.00;80.10
54938;DHT22;52756;52.826;6.214;2023-02-14T04:06:19;2.90;80.30
54938;DHT22;52756;52.826;6.214;2023-02-14T04:08:44;3.00;80.70
54938;DHT22;52756;52.826;6.214;2023-02-14T04:11:10;3.10;81.00
54938;DHT22;52756;52.826;6.214;2023-02-14T04:13:37;3.10;81.10
54938;DHT22;52756;52.826;6.214;2023-02-14T04:16:03;3.00;81.20
54938;DHT22;52756;52.826;6.214;2023-02-14T04:18:28;3.00;81.30
54938;DHT22;52756;52.826;6.214;2023-02-14T04:21:13;3.00;81.40
54938;DHT22;52756;52.826;6.214;2023-02-14T04:23:38;3.00;81.40
54938;DHT22;52756;52.826;6.214;2023-02-14T04:26:04;2.90;81.40
54938;DHT22;52756;52.826;6.214;2023-02-14T04:28:30;3.20;81.60
54938;DHT22;52756;52.826;6.214;2023-02-14T04:31:00;3.00;81.50
54938;DHT22;52756;52.826;6.214;2023-02-14T04:33:26;3.10;81.60
54938;DHT22;52756;52.826;6.214;2023-02-14T04:35:52;3.10;81.50
54938;DHT22;52756;52.826;6.214;2023-02-14T04:38:18;3.10;81.40
54938;DHT22;52756;52.826;6.214;2023-02-14T04:40:43;3.00;81.20
54938;DHT22;52756;52.826;6.214;2023-02-14T04:43:09;3.00;81.20
54938;DHT22;52756;52.826;6.214;2023-02-14T04:45:35;3.20;81.30
54938;DHT22;52756;52.826;6.214;2023-02-14T04:48:00;3.00;81.10
54938;DHT22;52756;52.826;6.214;2023-02-14T04:50:26;3.20;81.10
54938;DHT22;52756;52.826;6.214;2023-02-14T04:52:52;3.10;80.80
54938;DHT22;52756;52.826;6.214;2023-02-14T04:55:18;2.90;80.60
54938;DHT22;52756;52.826;6.214;2023-02-14T04:57:44;2.90;80.60
54938;DHT22;52756;52.826;6.214;2023-02-14T05:00:10;2.90;80.40
54938;DHT22;52756;52.826;6.214;2023-02-14T05:02:36;2.90;80.30
54938;DHT22;52756;52.826;6.214;2023-02-14T05:05:02;2.90;80.30
54938;DHT22;52756;52.826;6.214;2023-02-14T05:07:28;2.90;80.40
54938;DHT22;52756;52.826;6.214;2023-02-14T05:09:53;2.90;80.50
54938;DHT22;52756;52.826;6.214;2023-02-14T05:12:19;2.90;80.60
54938;DHT22;52756;52.826;6.214;2023-02-14T05:14:45;3.00;80.60
54938;DHT22;52756;52.826;6.214;2023-02-14T05:17:11;2.90;80.60
54938;DHT22;52756;52.826;6.214;2023-02-14T05:19:37;3.30;80.90
54938;DHT22;52756;52.826;6.214;2023-02-14T05:22:02;2.90;80.60
54938;DHT22;52756;52.826;6.214;2023-02-14T05:24:28;3.00;80.60
54938;DHT22;52756;52.826;6.214;2023-02-14T05:26:54;2.90;80.40
54938;DHT22;52756;52.826;6.214;2023-02-14T05:29:19;2.80;80.30
54938;DHT22;52756;52.826;6.214;2023-02-14T05:31:45;2.90;80.30
54938;DHT22;52756;52.826;6.214;2023-02-14T05:34:11;2.80;80.30
54938;DHT22;52756;52.826;6.214;2023-02-14T05:36:36;2.90;80.40
54938;DHT22;52756;52.826;6.214;2023-02-14T05:39:03;2.90;80.40
54938;DHT22;52756;52.826;6.214;2023-02-14T05:41:29;2.90;80.40
54938;DHT22;52756;52.826;6.214;2023-02-14T05:43:54;2.90;80.30
54938;DHT22;52756;52.826;6.214;2023-02-14T05:46:20;2.80;80.20
54938;DHT22;52756;52.826;6.214;2023-02-14T05:48:46;2.90;80.30
54938;DHT22;52756;52.826;6.214;2023-02-14T05:51:11;2.90;80.20
54938;DHT22;52756;52.826;6.214;2023-02-14T05:53:37;2.80;80.10
54938;DHT22;52756;52.826;6.214;2023-02-14T05:56:04;3.20;80.40
54938;DHT22;52756;52.826;6.214;2023-02-14T05:58:30;2.80;80.20
54938;DHT22;52756;52.826;6.214;2023-02-14T06:00:57;2.90;80.20
54938;DHT22;52756;52.826;6.214;2023-02-14T06:03:23;2.80;80.20
54938;DHT22;52756;52.826;6.214;2023-02-14T06:05:49;3.00;80.40
54938;DHT22;52756;52.826;6.214;2023-02-14T06:08:15;2.80;80.20
54938;DHT22;52756;52.826;6.214;2023-02-14T06:10:40;3.10;80.40
54938;DHT22;52756;52.826;6.214;2023-02-14T06:13:06;2.90;80.30
54938;DHT22;52756;52.826;6.214;2023-02-14T06:15:37;2.80;80.20
54938;DHT22;52756;52.826;6.214;2023-02-14T06:18:03;2.80;80.20
54938;DHT22;52756;52.826;6.214;2023-02-14T06:20:29;2.80;80.20
54938;DHT22;52756;52.826;6.214;2023-02-14T06:22:56;2.80;80.10
54938;DHT22;52756;52.826;6.214;2023-02-14T06:25:22;2.80;79.90
54938;DHT22;52756;52.826;6.214;2023-02-14T06:27:48;2.80;79.80
54938;DHT22;52756;52.826;6.214;2023-02-14T06:30:15;2.80;79.70
54938;DHT22;52756;52.826;6.214;2023-02-14T06:32:41;2.70;79.60
54938;DHT22;52756;52.826;6.214;2023-02-14T06:35:06;2.80;79.60
54938;DHT22;52756;52.826;6.214;2023-02-14T06:37:32;2.70;79.40
54938;DHT22;52756;52.826;6.214;2023-02-14T06:39:58;2.70;79.40
54938;DHT22;52756;52.826;6.214;2023-02-14T06:42:26;2.70;79.40
54938;DHT22;52756;52.826;6.214;2023-02-14T06:44:52;2.70;79.20
54938;DHT22;52756;52.826;6.214;2023-02-14T06:47:18;2.70;78.80
54938;DHT22;52756;52.826;6.214;2023-02-14T06:49:44;2.80;78.80
54938;DHT22;52756;52.826;6.214;2023-02-14T06:52:09;2.60;78.70
54938;DHT22;52756;52.826;6.214;2023-02-14T06:54:35;2.60;78.70
54938;DHT22;52756;52.826;6.214;2023-02-14T06:57:01;2.60;78.60
54938;DHT22;52756;52.826;6.214;2023-02-14T06:59:27;2.60;78.40
54938;DHT22;52756;52.826;6.214;2023-02-14T07:01:52;2.50;78.40
54938;DHT22;52756;52.826;6.214;2023-02-14T07:04:18;2.50;78.20
54938;DHT22;52756;52.826;6.214;2023-02-14T07:06:47;2.50;78.20
54938;DHT22;52756;52.826;6.214;2023-02-14T07:09:12;2.50;78.20
54938;DHT22;52756;52.826;6.214;2023-02-14T07:11:43;2.50;78.10
54938;DHT22;52756;52.826;6.214;2023-02-14T07:14:09;2.40;77.90
54938;DHT22;52756;52.826;6.214;2023-02-14T07:16:35;2.40;77.60
54938;DHT22;52756;52.826;6.214;2023-02-14T07:19:01;2.40;77.60
54938;DHT22;52756;52.826;6.214;2023-02-14T07:21:27;2.60;77.60
54938;DHT22;52756;52.826;6.214;2023-02-14T07:23:53;2.30;77.40
54938;DHT22;52756;52.826;6.214;2023-02-14T07:26:18;2.40;77.40
54938;DHT22;52756;52.826;6.214;2023-02-14T07:28:45;2.30;77.40
54938;DHT22;52756;52.826;6.214;2023-02-14T07:31:13;2.60;77.80
54938;DHT22;52756;52.826;6.214;2023-02-14T07:33:39;2.20;77.60
54938;DHT22;52756;52.826;6.214;2023-02-14T07:36:06;2.10;77.60
54938;DHT22;52756;52.826;6.214;2023-02-14T07:38:33;2.10;77.60
54938;DHT22;52756;52.826;6.214;2023-02-14T07:40:59;2.20;77.60
54938;DHT22;52756;52.826;6.214;2023-02-14T07:43:26;2.10;77.60
54938;DHT22;52756;52.826;6.214;2023-02-14T07:45:51;2.10;77.70
54938;DHT22;52756;52.826;6.214;2023-02-14T07:48:17;2.10;77.80
54938;DHT22;52756;52.826;6.214;2023-02-14T07:50:43;2.00;78.00
54938;DHT22;52756;52.826;6.214;2023-02-14T07:53:09;2.00;78.50
54938;DHT22;52756;52.826;6.214;2023-02-14T07:55:34;2.00;79.10
54938;DHT22;52756;52.826;6.214;2023-02-14T07:58:00;2.10;79.90
54938;DHT22;52756;52.826;6.214;2023-02-14T08:00:26;2.30;80.60
54938;DHT22;52756;52.826;6.214;2023-02-14T08:02:52;2.40;81.00
54938;DHT22;52756;52.826;6.214;2023-02-14T08:05:18;2.70;81.70
54938;DHT22;52756;52.826;6.214;2023-02-14T08:07:43;2.70;81.80
54938;DHT22;52756;52.826;6.214;2023-02-14T08:10:11;2.90;81.90
54938;DHT22;52756;52.826;6.214;2023-02-14T08:12:37;3.10;81.80
54938;DHT22;52756;52.826;6.214;2023-02-14T08:15:20;3.40;81.80
54938;DHT22;52756;52.826;6.214;2023-02-14T08:18:05;3.70;81.50
54938;DHT22;52756;52.826;6.214;2023-02-14T08:20:31;3.90;81.00
54938;DHT22;52756;52.826;6.214;2023-02-14T08:22:56;4.20;80.60
54938;DHT22;52756;52.826;6.214;2023-02-14T08:25:22;4.50;80.30
54938;DHT22;52756;52.826;6.214;2023-02-14T08:27:48;4.70;80.10
54938;DHT22;52756;52.826;6.214;2023-02-14T08:30:14;4.90;80.10
54938;DHT22;52756;52.826;6.214;2023-02-14T08:32:40;5.10;80.20
54938;DHT22;52756;52.826;6.214;2023-02-14T08:35:06;5.30;80.20
54938;DHT22;52756;52.826;6.214;2023-02-14T08:37:32;5.40;80.30
54938;DHT22;52756;52.826;6.214;2023-02-14T08:39:58;5.70;80.10
54938;DHT22;52756;52.826;6.214;2023-02-14T08:42:23;5.70;79.80
54938;DHT22;52756;52.826;6.214;2023-02-14T08:44:49;5.90;79.60
54938;DHT22;52756;52.826;6.214;2023-02-14T08:47:15;6.00;79.50
54938;DHT22;52756;52.826;6.214;2023-02-14T08:49:40;6.00;79.50
54938;DHT22;52756;52.826;6.214;2023-02-14T08:52:06;6.10;79.60
54938;DHT22;52756;52.826;6.214;2023-02-14T08:54:32;6.20;79.60
54938;DHT22;52756;52.826;6.214;2023-02-14T08:56:57;6.30;79.60
54938;DHT22;52756;52.826;6.214;2023-02-14T08:59:23;6.50;79.50
54938;DHT22;52756;52.826;6.214;2023-02-14T09:01:49;6.70;79.20
54938;DHT22;52756;52.826;6.214;2023-02-14T09:04:14;6.80;78.90
54938;DHT22;52756;52.826;6.214;2023-02-14T09:06:40;6.80;78.70
54938;DHT22;52756;52.826;6.214;2023-02-14T09:09:06;6.90;78.70
54938;DHT22;52756;52.826;6.214;2023-02-14T09:11:32;7.00;78.90
54938;DHT22;52756;52.826;6.214;2023-02-14T09:13:57;7.20;78.80
54938;DHT22;52756;52.826;6.214;2023-02-14T09:16:24;7.40;78.60
54938;DHT22;52756;52.826;6.214;2023-02-14T09:18:51;7.50;78.40
54938;DHT22;52756;52.826;6.214;2023-02-14T09:21:24;7.70;78.20
54938;DHT22;52756;52.826;6.214;2023-02-14T09:23:50;7.80;77.40
54938;DHT22;52756;52.826;6.214;2023-02-14T09:26:17;8.00;77.30
54938;DHT22;52756;52.826;6.214;2023-02-14T09:28:43;8.20;77.10
54938;DHT22;52756;52.826;6.214;2023-02-14T09:31:17;8.30;76.60
54938;DHT22;52756;52.826;6.214;2023-02-14T09:33:43;8.40;76.20
54938;DHT22;52756;52.826;6.214;2023-02-14T09:36:09;8.50;76.50
54938;DHT22;52756;52.826;6.214;2023-02-14T09:38:53;8.60;76.40
54938;DHT22;52756;52.826;6.214;2023-02-14T09:46:26;9.20;75.50
54938;DHT22;52756;52.826;6.214;2023-02-14T09:48:54;9.40;74.70
54938;DHT22;52756;52.826;6.214;2023-02-14T09:51:23;9.50;74.10
54938;DHT22;52756;52.826;6.214;2023-02-14T09:54:01;9.60;73.80
54938;DHT22;52756;52.826;6.214;2023-02-14T09:56:47;9.70;73.40
54938;DHT22;52756;52.826;6.214;2023-02-14T09:59:38;9.80;73.50
54938;DHT22;52756;52.826;6.214;2023-02-14T10:04:53;10.00;73.30
54938;DHT22;52756;52.826;6.214;2023-02-14T10:10:40;10.10;72.50
54938;DHT22;52756;52.826;6.214;2023-02-14T10:13:18;10.20;72.60
54938;DHT22;52756;52.826;6.214;2023-02-14T10:15:48;10.30;72.60
54938;DHT22;52756;52.826;6.214;2023-02-14T10:18:19;10.40;72.50
54938;DHT22;52756;52.826;6.214;2023-02-14T10:20:57;10.40;71.90
54938;DHT22;52756;52.826;6.214;2023-02-14T10:23:57;10.50;71.20
54938;DHT22;52756;52.826;6.214;2023-02-14T10:26:38;10.40;71.00
54938;DHT22;52756;52.826;6.214;2023-02-14T10:29:13;10.40;71.40
54938;DHT22;52756;52.826;6.214;2023-02-14T10:40:17;10.40;71.50
54938;DHT22;52756;52.826;6.214;2023-02-14T10:42:56;10.30;71.70
54938;DHT22;52756;52.826;6.214;2023-02-14T10:51:22;10.40;72.30
54938;DHT22;52756;52.826;6.214;2023-02-14T10:54:09;10.30;72.50
54938;DHT22;52756;52.826;6.214;2023-02-14T10:56:41;10.40;72.60
54938;DHT22;52756;52.826;6.214;2023-02-14T11:01:52;10.40;73.00
54938;DHT22;52756;52.826;6.214;2023-02-14T11:04:20;10.50;73.10
54938;DHT22;52756;52.826;6.214;2023-02-14T11:06:47;10.50;73.20
54938;DHT22;52756;52.826;6.214;2023-02-14T11:09:14;10.60;73.30
54938;DHT22;52756;52.826;6.214;2023-02-14T11:11:50;10.70;73.20
54938;DHT22;52756;52.826;6.214;2023-02-14T11:16:49;10.80;73.20
54938;DHT22;52756;52.826;6.214;2023-02-14T11:19:18;10.90;72.90
54938;DHT22;52756;52.826;6.214;2023-02-14T11:21:46;10.90;72.60
54938;DHT22;52756;52.826;6.214;2023-02-14T11:26:49;11.00;72.10
54938;DHT22;52756;52.826;6.214;2023-02-14T11:31:54;11.00;71.80
54938;DHT22;52756;52.826;6.214;2023-02-14T11:34:23;11.10;72.10
54938;DHT22;52756;52.826;6.214;2023-02-14T11:36:49;11.10;72.10
54938;DHT22;52756;52.826;6.214;2023-02-14T11:39:31;11.20;71.90
54938;DHT22;52756;52.826;6.214;2023-02-14T11:42:02;11.20;71.90
54938;DHT22;52756;52.826;6.214;2023-02-14T11:44:33;11.20;72.00
54938;DHT22;52756;52.826;6.214;2023-02-14T11:47:30;11.20;72.10
54938;DHT22;52756;52.826;6.214;2023-02-14T11:50:02;11.30;71.80
54938;DHT22;52756;52.826;6.214;2023-02-14T11:52:32;11.30;71.90
54938;DHT22;52756;52.826;6.214;2023-02-14T11:54:58;11.30;71.90
54938;DHT22;52756;52.826;6.214;2023-02-14T11:57:32;11.30;71.80
54938;DHT22;52756;52.826;6.214;2023-02-14T12:00:01;11.40;71.60
54938;DHT22;52756;52.826;6.214;2023-02-14T12:03:02;11.40;71.50
54938;DHT22;52756;52.826;6.214;2023-02-14T12:05:34;11.40;71.50
54938;DHT22;52756;52.826;6.214;2023-02-14T12:08:03;11.40;71.60
54938;DHT22;52756;52.826;6.214;2023-02-14T12:10:34;11.50;71.40
54938;DHT22;52756;52.826;6.214;2023-02-14T12:15:36;11.50;71.00
54938;DHT22;52756;52.826;6.214;2023-02-14T12:28:54;11.60;70.30
54938;DHT22;52756;52.826;6.214;2023-02-14T12:31:21;11.60;70.30
54938;DHT22;52756;52.826;6.214;2023-02-14T12:33:47;11.60;70.50
54938;DHT22;52756;52.826;6.214;2023-02-14T12:47:39;11.60;69.80
54938;DHT22;52756;52.826;6.214;2023-02-14T12:50:37;11.60;69.90
54938;DHT22;52756;52.826;6.214;2023-02-14T12:53:36;11.60;70.00
54938;DHT22;52756;52.826;6.214;2023-02-14T13:07:42;11.60;70.20
54938;DHT22;52756;52.826;6.214;2023-02-14T13:13:39;11.60;70.30
54938;DHT22;52756;52.826;6.214;2023-02-14T13:16:22;11.60;70.20
54938;DHT22;52756;52.826;6.214;2023-02-14T13:18:58;11.60;70.40
54938;DHT22;52756;52.826;6.214;2023-02-14T13:21:30;11.60;70.50
54938;DHT22;52756;52.826;6.214;2023-02-14T13:24:21;11.60;70.70
54938;DHT22;52756;52.826;6.214;2023-02-14T13:26:52;11.60;70.80
54938;DHT22;52756;52.826;6.214;2023-02-14T13:29:22;11.60;70.90
54938;DHT22;52756;52.826;6.214;2023-02-14T13:31:51;11.60;71.00
54938;DHT22;52756;52.826;6.214;2023-02-14T13:34:54;11.60;71.00
54938;DHT22;52756;52.826;6.214;2023-02-14T13:37:20;11.60;71.00
54938;DHT22;52756;52.826;6.214;2023-02-14T13:48:17;11.70;71.20
54938;DHT22;52756;52.826;6.214;2023-02-14T13:50:51;11.70;71.10
54938;DHT22;52756;52.826;6.214;2023-02-14T13:53:44;11.70;71.20
54938;DHT22;52756;52.826;6.214;2023-02-14T13:58:46;11.70;71.60
54938;DHT22;52756;52.826;6.214;2023-02-14T14:01:37;11.70;71.40
54938;DHT22;52756;52.826;6.214;2023-02-14T14:17:40;11.70;71.30
54938;DHT22;52756;52.826;6.214;2023-02-14T14:22:50;11.80;71.10
54938;DHT22;52756;52.826;6.214;2023-02-14T14:25:48;11.70;71.00
54938;DHT22;52756;52.826;6.214;2023-02-14T14:28:23;11.80;70.90
54938;DHT22;52756;52.826;6.214;2023-02-14T14:30:49;11.80;70.90
54938;DHT22;52756;52.826;6.214;2023-02-14T14:35:52;11.80;70.50
54938;DHT22;52756;52.826;6.214;2023-02-14T14:38:18;11.80;70.50
54938;DHT22;52756;52.826;6.214;2023-02-14T14:40:46;11.80;70.70
54938;DHT22;52756;52.826;6.214;2023-02-14T14:43:31;11.80;70.50
54938;DHT22;52756;52.826;6.214;2023-02-14T14:45:59;11.80;70.10
54938;DHT22;52756;52.826;6.214;2023-02-14T14:48:34;11.80;70.20
54938;DHT22;52756;52.826;6.214;2023-02-14T14:51:03;11.70;70.20
54938;DHT22;52756;52.826;6.214;2023-02-14T14:56:02;11.80;70.10
54938;DHT22;52756;52.826;6.214;2023-02-14T15:00:54;11.80;69.90
54938;DHT22;52756;52.826;6.214;2023-02-14T15:03:22;11.70;69.60
54938;DHT22;52756;52.826;6.214;2023-02-14T15:05:50;11.80;69.80
54938;DHT22;52756;52.826;6.214;2023-02-14T15:08:29;11.70;69.80
54938;DHT22;52756;52.826;6.214;2023-02-14T15:11:11;11.70;69.80
54938;DHT22;52756;52.826;6.214;2023-02-14T15:13:46;11.70;69.90
54938;DHT22;52756;52.826;6.214;2023-02-14T15:18:46;11.70;69.90
54938;DHT22;52756;52.826;6.214;2023-02-14T15:21:13;11.70;70.10
54938;DHT22;52756;52.826;6.214;2023-02-14T15:23:40;11.70;70.20
54938;DHT22;52756;52.826;6.214;2023-02-14T15:26:16;11.70;70.30
54938;DHT22;52756;52.826;6.214;2023-02-14T15:28:42;11.70;70.30
54938;DHT22;52756;52.826;6.214;2023-02-14T15:31:08;11.70;70.50
54938;DHT22;52756;52.826;6.214;2023-02-14T15:33:34;11.70;70.60
54938;DHT22;52756;52.826;6.214;2023-02-14T15:36:07;11.70;70.50
54938;DHT22;52756;52.826;6.214;2023-02-14T15:38:35;11.70;70.60
54938;DHT22;52756;52.826;6.214;2023-02-14T15:41:04;11.70;70.60
54938;DHT22;52756;52.826;6.214;2023-02-14T15:43:32;11.70;70.50
54938;DHT22;52756;52.826;6.214;2023-02-14T15:46:33;11.70;70.50
54938;DHT22;52756;52.826;6.214;2023-02-14T15:49:00;11.70;70.50
54938;DHT22;52756;52.826;6.214;2023-02-14T15:51:31;11.60;70.60
54938;DHT22;52756;52.826;6.214;2023-02-14T15:54:03;11.60;70.60
54938;DHT22;52756;52.826;6.214;2023-02-14T15:56:32;11.70;70.70
54938;DHT22;52756;52.826;6.214;2023-02-14T15:59:03;11.60;70.70
54938;DHT22;52756;52.826;6.214;2023-02-14T16:01:33;11.60;70.70
54938;DHT22;52756;52.826;6.214;2023-02-14T16:04:02;11.60;70.60
54938;DHT22;52756;52.826;6.214;2023-02-14T16:08:58;11.60;70.40
54938;DHT22;52756;52.826;6.214;2023-02-14T16:14:23;11.50;70.30
54938;DHT22;52756;52.826;6.214;2023-02-14T16:17:02;11.50;70.50
54938;DHT22;52756;52.826;6.214;2023-02-14T16:19:37;11.50;70.90
54938;DHT22;52756;52.826;6.214;2023-02-14T16:22:04;11.40;71.20
54938;DHT22;52756;52.826;6.214;2023-02-14T16:24:32;11.20;71.30
54938;DHT22;52756;52.826;6.214;2023-02-14T16:26:57;11.40;71.60
54938;DHT22;52756;52.826;6.214;2023-02-14T16:29:24;11.40;71.70
54938;DHT22;52756;52.826;6.214;2023-02-14T16:31:54;11.30;71.70
54938;DHT22;52756;52.826;6.214;2023-02-14T16:34:20;11.30;71.80
54938;DHT22;52756;52.826;6.214;2023-02-14T16:36:46;11.30;71.90
54938;DHT22;52756;52.826;6.214;2023-02-14T16:39:17;11.20;71.90
54938;DHT22;52756;52.826;6.214;2023-02-14T16:41:45;11.20;71.90
54938;DHT22;52756;52.826;6.214;2023-02-14T16:44:17;11.20;72.00
54938;DHT22;52756;52.826;6.214;2023-02-14T16:46:44;10.80;71.80
54938;DHT22;52756;52.826;6.214;2023-02-14T16:49:11;11.10;72.10
54938;DHT22;52756;52.826;6.214;2023-02-14T16:51:40;11.10;72.30
54938;DHT22;52756;52.826;6.214;2023-02-14T16:54:19;11.10;72.40
54938;DHT22;52756;52.826;6.214;2023-02-14T16:56:47;11.00;72.40
54938;DHT22;52756;52.826;6.214;2023-02-14T16:59:15;11.00;72.40
54938;DHT22;52756;52.826;6.214;2023-02-14T17:01:41;10.90;72.30
54938;DHT22;52756;52.826;6.214;2023-02-14T17:04:07;10.90;72.30
54938;DHT22;52756;52.826;6.214;2023-02-14T17:06:33;10.80;72.20
54938;DHT22;52756;52.826;6.214;2023-02-14T17:09:04;10.70;72.20
54938;DHT22;52756;52.826;6.214;2023-02-14T17:11:35;10.70;72.20
54938;DHT22;52756;52.826;6.214;2023-02-14T17:14:05;10.70;72.20
54938;DHT22;52756;52.826;6.214;2023-02-14T17:16:31;10.60;72.20
54938;DHT22;52756;52.826;6.214;2023-02-14T17:18:57;10.50;72.10
54938;DHT22;52756;52.826;6.214;2023-02-14T17:21:23;10.40;71.70
54938;DHT22;52756;52.826;6.214;2023-02-14T17:23:51;10.40;71.10
54938;DHT22;52756;52.826;6.214;2023-02-14T17:26:17;10.30;70.70
54938;DHT22;52756;52.826;6.214;2023-02-14T17:28:44;10.10;70.70
54938;DHT22;52756;52.826;6.214;2023-02-14T17:31:11;10.10;70.90
54938;DHT22;52756;52.826;6.214;2023-02-14T17:33:39;10.00;71.10
54938;DHT22;52756;52.826;6.214;2023-02-14T17:36:06;9.90;71.20
54938;DHT22;52756;52.826;6.214;2023-02-14T17:38:33;9.80;71.40
54938;DHT22;52756;52.826;6.214;2023-02-14T17:41:16;9.80;71.50
54938;DHT22;52756;52.826;6.214;2023-02-14T17:43:44;9.70;71.40
54938;DHT22;52756;52.826;6.214;2023-02-14T17:46:10;9.60;71.50
54938;DHT22;52756;52.826;6.214;2023-02-14T17:48:39;9.60;71.50
54938;DHT22;52756;52.826;6.214;2023-02-14T17:51:07;9.50;71.60
54938;DHT22;52756;52.826;6.214;2023-02-14T17:53:33;9.50;71.70
54938;DHT22;52756;52.826;6.214;2023-02-14T17:56:09;9.40;71.80
54938;DHT22;52756;52.826;6.214;2023-02-14T17:58:36;9.30;71.80
54938;DHT22;52756;52.826;6.214;2023-02-14T18:01:06;9.20;71.80
54938;DHT22;52756;52.826;6.214;2023-02-14T18:03:32;9.10;71.80
54938;DHT22;52756;52.826;6.214;2023-02-14T18:05:59;9.10;71.70
54938;DHT22;52756;52.826;6.214;2023-02-14T18:08:29;9.00;71.70
54938;DHT22;52756;52.826;6.214;2023-02-14T18:10:55;8.90;71.70
54938;DHT22;52756;52.826;6.214;2023-02-14T18:13:27;8.80;71.70
54938;DHT22;52756;52.826;6.214;2023-02-14T18:15:52;8.80;71.70
54938;DHT22;52756;52.826;6.214;2023-02-14T18:18:18;8.70;71.60
54938;DHT22;52756;52.826;6.214;2023-02-14T18:20:56;8.70;71.70
54938;DHT22;52756;52.826;6.214;2023-02-14T18:23:22;8.60;71.70
54938;DHT22;52756;52.826;6.214;2023-02-14T18:25:52;8.50;71.70
54938;DHT22;52756;52.826;6.214;2023-02-14T18:28:19;8.50;71.80
54938;DHT22;52756;52.826;6.214;2023-02-14T18:30:45;8.40;71.80
54938;DHT22;52756;52.826;6.214;2023-02-14T18:33:12;8.30;71.80
54938;DHT22;52756;52.826;6.214;2023-02-14T18:35:38;8.30;72.00
54938;DHT22;52756;52.826;6.214;2023-02-14T18:38:05;8.20;72.00
54938;DHT22;52756;52.826;6.214;2023-02-14T18:40:31;8.10;72.10
54938;DHT22;52756;52.826;6.214;2023-02-14T18:42:57;8.10;72.10
54938;DHT22;52756;52.826;6.214;2023-02-14T18:45:22;8.00;72.10
54938;DHT22;52756;52.826;6.214;2023-02-14T18:47:49;8.00;72.20